Time;durP1;ratioP1;P1;durP2;ratioP2;P2;SDS_P1;SDS_P2;PMS_P1;PMS_P2;Temp;Humidity;BMP_temperature;BMP_pressure;BME280_temperature;BME280_humidity;BME280_pressure;Samples;Min_cycle;Max_cycle;Signal;HPM_P1;HPM_P2
2022/03/09 00:01:37;;;;;;;4.50;2.55;;;;;;;-0.64;71.59;101414.20;1741046;82;28203;-61
2022/03/09 00:04:05;;;;;;;7.65;2.98;;;;;;;-0.65;71.66;101415.95;1740672;82;25707;-61
2022/03/09 00:06:32;;;;;;;3.65;2.17;;;;;;;-0.67;71.79;101406.36;1741012;82;25783;-60
2022/03/09 00:08:59;;;;;;;3.00;2.33;;;;;;;-0.70;71.50;101409.96;1740832;82;26145;-61
2022/03/09 00:11:27;;;;;;;4.30;2.83;;;;;;;-0.71;71.19;101407.34;1741174;82;25732;-60
2022/03/09 00:13:53;;;;;;;2.60;2.35;;;;;;;-0.73;71.13;101403.45;1740802;82;28165;-60
2022/03/09 00:16:21;;;;;;;3.08;2.47;;;;;;;-0.72;71.11;101406.50;1740700;82;25572;-60
2022/03/09 00:18:48;;;;;;;3.47;2.12;;;;;;;-0.71;70.95;101401.62;1740884;82;25731;-60
2022/03/09 00:21:15;;;;;;;3.35;2.35;;;;;;;-0.67;70.68;101408.52;1741072;82;25762;-60
2022/03/09 00:23:42;;;;;;;5.55;2.42;;;;;;;-0.71;70.45;101410.88;1740674;82;25935;-60
2022/03/09 00:26:09;;;;;;;4.55;2.27;;;;;;;-0.70;70.43;101414.36;1740710;82;28209;-60
2022/03/09 00:28:36;;;;;;;3.98;3.00;;;;;;;-0.72;70.28;101411.78;1740677;82;25669;-60
2022/03/09 00:31:04;;;;;;;4.12;2.25;;;;;;;-0.73;69.93;101413.16;1740879;82;25741;-60
2022/03/09 00:33:31;;;;;;;3.27;2.30;;;;;;;-0.78;69.86;101405.38;1740777;82;26769;-60
2022/03/09 00:35:58;;;;;;;2.27;2.05;;;;;;;-0.77;69.96;101407.55;1741358;82;25961;-60
2022/03/09 00:38:24;;;;;;;3.42;2.08;;;;;;;-0.79;69.72;101406.28;1741036;82;27501;-60
2022/03/09 00:40:51;;;;;;;2.25;2.00;;;;;;;-0.81;69.58;101400.18;1741034;82;25658;-60
2022/03/09 00:43:18;;;;;;;2.83;2.08;;;;;;;-0.87;69.26;101397.73;1724744;82;25692;-60
2022/03/09 00:45:45;;;;;;;2.25;1.98;;;;;;;-0.95;69.08;101393.56;1726012;82;25738;-61
2022/03/09 00:48:13;;;;;;;3.08;2.00;;;;;;;-0.97;68.90;101394.48;1726127;82;25852;-60
2022/03/09 00:50:40;;;;;;;2.75;2.08;;;;;;;-1.04;68.64;101392.52;1725789;83;27395;-61
2022/03/09 00:53:06;;;;;;;2.37;1.70;;;;;;;-1.12;68.77;101398.48;1726166;83;25743;-60
2022/03/09 00:55:33;;;;;;;2.45;1.87;;;;;;;-1.15;69.09;101400.73;1703683;82;25766;-60
2022/03/09 00:58:00;;;;;;;3.15;2.02;;;;;;;-1.18;68.99;101408.77;1701142;83;26201;-60
2022/03/09 01:00:27;;;;;;;3.15;2.10;;;;;;;-1.19;69.05;101408.36;1700872;83;25725;-60
2022/03/09 01:02:54;;;;;;;5.25;2.10;;;;;;;-1.30;69.14;101419.20;1700999;84;27527;-60
2022/03/09 01:05:21;;;;;;;3.05;2.08;;;;;;;-1.34;69.48;101422.86;1700938;84;25516;-61
2022/03/09 01:07:48;;;;;;;2.30;1.90;;;;;;;-1.37;69.78;101423.40;1701138;83;25761;-60
2022/03/09 01:10:15;;;;;;;3.45;2.15;;;;;;;-1.43;69.90;101416.52;1701082;84;26159;-61
2022/03/09 01:12:43;;;;;;;2.95;1.80;;;;;;;-1.53;69.79;101411.96;1701304;84;25721;-60
2022/03/09 01:15:09;;;;;;;3.00;2.30;;;;;;;-1.54;70.09;101410.66;1700963;84;27489;-60
2022/03/09 01:17:36;;;;;;;3.15;2.10;;;;;;;-1.57;69.82;101419.54;1701049;82;25672;-60
2022/03/09 01:20:05;;;;;;;1.87;1.65;;;;;;;-1.60;69.98;101416.97;1700979;84;25505;-58
2022/03/09 01:22:32;;;;;;;2.22;2.00;;;;;;;-1.61;70.24;101412.16;1701372;83;25728;-60
2022/03/09 01:24:59;;;;;;;2.55;1.67;;;;;;;-1.63;70.08;101419.25;1700940;83;25621;-60
2022/03/09 01:27:26;;;;;;;3.85;1.85;;;;;;;-1.62;70.00;101424.94;1701112;82;27558;-60
2022/03/09 01:29:52;;;;;;;3.45;2.02;;;;;;;-1.63;69.91;101423.67;1701327;84;25747;-60
2022/03/09 01:32:21;;;;;;;3.40;1.92;;;;;;;-1.65;69.96;101422.84;1700966;83;25816;-60
2022/03/09 01:34:50;;;;;;;2.37;1.80;;;;;;;-1.66;69.96;101423.75;1701260;84;25745;-60
2022/03/09 01:37:17;;;;;;;2.12;1.80;;;;;;;-1.67;69.93;101426.85;1701389;84;25722;-61
2022/03/09 01:39:44;;;;;;;3.58;1.90;;;;;;;-1.71;69.75;101426.51;1701104;83;27475;-60
2022/03/09 01:42:11;;;;;;;1.82;1.57;;;;;;;-1.71;69.83;101422.55;1703961;83;26034;-60
2022/03/09 01:44:38;;;;;;;1.77;1.55;;;;;;;-1.71;69.52;101425.66;1709652;83;25788;-62
2022/03/09 01:47:06;;;;;;;3.52;2.10;;;;;;;-1.74;69.46;101427.90;1709509;83;25886;-61
2022/03/09 01:49:34;;;;;;;4.97;2.08;;;;;;;-1.74;69.30;101432.73;1709853;83;25461;-60
2022/03/09 01:52:00;;;;;;;4.92;2.20;;;;;;;-1.82;68.50;101422.84;1709433;83;28482;-61
2022/03/09 01:54:30;;;;;;;4.12;2.22;;;;;;;-1.93;68.55;101425.74;1722687;82;25752;-60
2022/03/09 01:56:59;;;;;;;1.57;1.32;;;;;;;-2.00;68.53;101440.00;1740634;82;25723;-61
2022/03/09 01:59:27;;;;;;;2.47;1.95;;;;;;;-2.08;68.61;101430.10;1740930;82;25799;-61
2022/03/09 02:01:54;;;;;;;2.50;1.92;;;;;;;-2.13;68.79;101435.48;1740807;82;25784;-60
2022/03/09 02:04:21;;;;;;;1.98;1.50;;;;;;;-2.20;68.79;101443.14;1740848;82;27514;-60
2022/03/09 02:06:48;;;;;;;2.60;1.72;;;;;;;-2.25;68.89;101443.72;1740656;82;25474;-61
2022/03/09 02:12:00;;;;;;;2.55;2.00;;;;;;;-2.33;68.98;101442.58;1740627;82;25506;-60
2022/03/09 02:14:39;;;;;;;2.10;1.52;;;;;;;-2.39;68.75;101444.05;1741167;82;25727;-60
2022/03/09 02:17:10;;;;;;;3.37;2.12;;;;;;;-2.43;68.74;101448.96;1739404;82;27507;-61
2022/03/09 02:19:39;;;;;;;3.08;1.95;;;;;;;-2.46;68.48;101451.22;1741032;82;25845;-60
2022/03/09 02:22:21;;;;;;;2.42;1.95;;;;;;;-2.54;68.48;101443.48;1740240;82;25728;-60
2022/03/09 02:24:51;;;;;;;3.70;2.12;;;;;;;-2.58;68.55;101444.48;1741021;82;26457;-61
2022/03/09 02:27:20;;;;;;;3.02;2.42;;;;;;;-2.57;68.75;101450.16;1740847;82;25716;-60
2022/03/09 02:29:52;;;;;;;2.90;1.92;;;;;;;-2.62;68.63;101449.38;1741116;82;27455;-61
2022/03/09 02:32:20;;;;;;;2.15;1.95;;;;;;;-2.66;68.74;101453.01;1740592;82;25802;-61
2022/03/09 02:34:49;;;;;;;5.00;2.47;;;;;;;-2.68;68.90;101445.12;1741023;82;25534;-61
2022/03/09 02:37:17;;;;;;;2.83;1.92;;;;;;;-2.74;68.72;101446.58;1740495;82;25686;-60
2022/03/09 02:39:45;;;;;;;2.27;2.02;;;;;;;-2.74;68.82;101444.41;1741040;82;25724;-61
2022/03/09 02:42:13;;;;;;;1.90;1.70;;;;;;;-2.73;68.96;101444.80;1730432;82;27490;-61
2022/03/09 02:44:40;;;;;;;4.40;1.95;;;;;;;-2.78;68.72;101444.91;1737575;82;25756;-61
2022/03/09 02:47:07;;;;;;;3.20;1.65;;;;;;;-2.81;68.58;101444.99;1740228;82;25778;-61
2022/03/09 02:49:34;;;;;;;3.87;2.08;;;;;;;-2.89;68.62;101457.46;1741003;82;25828;-60
2022/03/09 02:52:02;;;;;;;2.95;1.80;;;;;;;-2.91;68.73;101452.67;1740669;81;25720;-60
2022/03/09 02:54:29;;;;;;;2.22;1.80;;;;;;;-2.91;68.85;101457.94;1722879;82;27494;-60
2022/03/09 02:56:57;;;;;;;2.60;1.85;;;;;;;-2.91;68.84;101460.56;1700924;83;25722;-60
2022/03/09 02:59:24;;;;;;;5.12;2.00;;;;;;;-2.93;68.93;101451.39;1701286;83;25738;-61
2022/03/09 03:01:51;;;;;;;3.50;1.80;;;;;;;-2.93;68.87;101463.67;1700987;83;25760;-61
2022/03/09 03:04:18;;;;;;;2.75;2.00;;;;;;;-2.93;68.96;101459.30;1701097;83;25595;-61
2022/03/09 03:06:45;;;;;;;2.92;2.00;;;;;;;-2.95;68.91;101462.41;1700870;84;28226;-61
2022/03/09 03:09:12;;;;;;;4.70;1.67;;;;;;;-2.92;68.96;101466.30;1700903;82;25555;-60
2022/03/09 03:11:38;;;;;;;2.50;1.85;;;;;;;-2.91;69.01;101462.73;1701048;83;25551;-61
2022/03/09 03:14:05;;;;;;;3.65;2.92;;;;;;;-2.86;69.01;101473.17;1700974;84;25712;-61
2022/03/09 03:16:32;;;;;;;3.45;2.10;;;;;;;-2.80;69.01;101470.86;1701891;83;25776;-61
2022/03/09 03:18:59;;;;;;;3.40;2.50;;;;;;;-2.73;68.93;101475.09;1701122;83;27441;-61
2022/03/09 03:21:26;;;;;;;3.20;2.05;;;;;;;-2.68;68.86;101481.14;1700973;83;25733;-61
2022/03/09 03:23:53;;;;;;;3.80;2.02;;;;;;;-2.68;69.00;101476.72;1700945;83;25761;-60
2022/03/09 03:26:20;;;;;;;3.70;2.17;;;;;;;-2.67;68.77;101474.97;1701264;83;25627;-60
2022/03/09 03:28:46;;;;;;;4.00;2.27;;;;;;;-2.63;69.08;101476.63;1700884;84;25837;-61
2022/03/09 03:31:13;;;;;;;3.98;2.37;;;;;;;-2.63;68.87;101479.72;1700899;83;27488;-60
2022/03/09 03:33:40;;;;;;;3.00;1.90;;;;;;;-2.65;68.83;101477.13;1700713;82;25772;-60
2022/03/09 03:36:07;;;;;;;3.22;2.10;;;;;;;-2.64;68.79;101477.52;1700822;83;25803;-60
2022/03/09 03:38:34;;;;;;;2.87;2.47;;;;;;;-2.60;68.69;101474.40;1701594;83;26172;-60
2022/03/09 03:41:01;;;;;;;2.90;2.17;;;;;;;-2.61;68.70;101479.24;1701504;83;25498;-61
2022/03/09 03:43:27;;;;;;;4.60;2.55;;;;;;;-2.60;68.69;101478.34;1708621;81;27575;-61
2022/03/09 03:45:55;;;;;;;8.58;2.10;;;;;;;-2.61;68.73;101486.69;1709391;83;25748;-61
2022/03/09 03:48:22;;;;;;;2.72;2.30;;;;;;;-2.60;68.79;101480.98;1709514;83;25705;-61
2022/03/09 03:50:48;;;;;;;3.75;2.67;;;;;;;-2.62;68.77;101489.36;1709708;83;25781;-61
2022/03/09 03:53:15;;;;;;;4.12;2.52;;;;;;;-2.61;69.16;101493.73;1722832;82;26097;-60
2022/03/09 03:55:44;;;;;;;3.90;2.25;;;;;;;-2.64;69.27;101494.64;1724290;82;28159;-60
2022/03/09 03:58:12;;;;;;;5.37;2.72;;;;;;;-2.61;69.71;101492.41;1724075;82;25792;-60
2022/03/09 04:00:39;;;;;;;4.35;2.67;;;;;;;-2.61;69.85;101493.73;1729018;82;25838;-61
2022/03/09 04:03:05;;;;;;;4.40;2.60;;;;;;;-2.63;70.07;101499.02;1726938;82;26205;-61
2022/03/09 04:05:32;;;;;;;3.80;2.62;;;;;;;-2.68;70.12;101504.84;1727759;82;25915;-61
2022/03/09 04:07:59;;;;;;;6.05;2.90;;;;;;;-2.68;70.39;101501.75;1732012;82;29614;-61
2022/03/09 04:10:26;;;;;;;6.10;3.35;;;;;;;-2.65;70.48;101507.42;1731760;81;25783;-61
2022/03/09 04:12:53;;;;;;;7.37;2.55;;;;;;;-2.67;70.50;101508.75;1730848;82;25868;-60
2022/03/09 04:15:20;;;;;;;6.97;3.33;;;;;;;-2.64;71.87;101509.59;1732069;82;25751;-60
2022/03/09 04:17:47;;;;;;;4.22;2.70;;;;;;;-2.72;71.68;101515.02;1721214;82;27220;-61
2022/03/09 04:20:15;;;;;;;3.12;2.47;;;;;;;-2.76;72.41;101515.53;1709686;82;27482;-61
2022/03/09 04:22:43;;;;;;;4.08;2.77;;;;;;;-2.79;72.56;101523.52;1709873;83;25479;-61
2022/03/09 04:25:11;;;;;;;6.50;3.75;;;;;;;-2.80;72.84;101518.27;1709746;82;25688;-60
2022/03/09 04:27:39;;;;;;;6.85;3.50;;;;;;;-2.82;72.97;101515.67;1709893;83;25488;-61
2022/03/09 04:30:09;;;;;;;5.10;3.27;;;;;;;-2.81;73.43;101521.80;1709785;82;25816;-61
2022/03/09 04:32:37;;;;;;;6.25;3.02;;;;;;;-2.85;73.49;101521.87;1709698;83;27467;-61
2022/03/09 04:35:05;;;;;;;6.12;3.65;;;;;;;-2.86;73.54;101525.84;1709953;83;25819;-61
2022/03/09 04:37:33;;;;;;;4.50;2.62;;;;;;;-2.88;73.69;101528.51;1709873;83;26346;-61
2022/03/09 04:40:04;;;;;;;5.28;3.47;;;;;;;-2.89;74.29;101528.09;1709651;83;25796;-61
2022/03/09 04:42:32;;;;;;;4.60;3.20;;;;;;;-2.91;73.81;101524.61;1713121;82;25728;-60
2022/03/09 04:44:59;;;;;;;4.87;2.92;;;;;;;-2.90;74.30;101525.03;1726052;83;27562;-61
2022/03/09 04:47:25;;;;;;;6.33;3.30;;;;;;;-2.93;74.17;101531.70;1716446;82;25849;-61
2022/03/09 04:49:52;;;;;;;5.42;3.72;;;;;;;-2.95;73.86;101534.80;1710612;82;25757;-61
2022/03/09 04:52:21;;;;;;;9.00;5.12;;;;;;;-2.90;73.97;101542.15;1710280;82;26147;-61
2022/03/09 04:54:48;;;;;;;11.28;4.28;;;;;;;-2.94;73.86;101537.86;1723671;82;25712;-61
2022/03/09 04:57:15;;;;;;;6.20;3.65;;;;;;;-2.93;74.05;101540.91;1733945;82;27473;-61
2022/03/09 04:59:43;;;;;;;7.62;3.92;;;;;;;-2.96;73.73;101546.70;1738694;82;25477;-61
2022/03/09 05:02:10;;;;;;;5.28;3.80;;;;;;;-3.02;73.65;101564.79;1731605;82;25815;-61
2022/03/09 05:04:37;;;;;;;8.70;4.30;;;;;;;-3.00;73.85;101559.91;1723724;81;25767;-61
2022/03/09 05:07:04;;;;;;;6.87;4.00;;;;;;;-3.00;73.86;101557.27;1710498;83;25745;-61
2022/03/09 05:09:32;;;;;;;7.17;3.30;;;;;;;-2.99;73.76;101555.50;1711355;82;27462;-61
2022/03/09 05:11:59;;;;;;;7.90;4.62;;;;;;;-2.95;73.76;101562.45;1732658;82;25794;-61
2022/03/09 05:14:26;;;;;;;7.97;4.20;;;;;;;-2.96;73.40;101562.03;1726437;82;25687;-60
2022/03/09 05:16:53;;;;;;;7.33;4.58;;;;;;;-2.94;73.47;101566.82;1723156;82;25786;-61
2022/03/09 05:19:20;;;;;;;9.75;5.30;;;;;;;-2.91;73.10;101573.78;1731806;82;25779;-61
2022/03/09 05:21:47;;;;;;;5.97;4.25;;;;;;;-2.90;72.87;101572.89;1735324;82;28158;-61
2022/03/09 05:24:16;;;;;;;6.83;4.25;;;;;;;-2.88;72.80;101573.27;1726427;82;25545;-61
2022/03/09 05:26:46;;;;;;;7.15;3.87;;;;;;;-2.81;71.93;101583.67;1734154;82;25765;-61
2022/03/09 05:29:14;;;;;;;8.58;3.95;;;;;;;-2.85;71.75;101586.39;1711430;83;25780;-61
2022/03/09 05:31:44;;;;;;;8.45;4.50;;;;;;;-2.79;71.61;101590.67;1711172;83;25550;-62
2022/03/09 05:34:13;;;;;;;6.75;3.47;;;;;;;-2.79;71.39;101589.36;1711082;83;28156;-61
2022/03/09 05:36:41;;;;;;;6.00;3.45;;;;;;;-2.75;71.80;101592.33;1710722;83;25688;-61
2022/03/09 05:39:08;;;;;;;6.22;3.25;;;;;;;-2.75;71.13;101603.33;1722866;82;25799;-61
2022/03/09 05:41:35;;;;;;;9.03;4.10;;;;;;;-2.78;71.22;101611.28;1733075;82;25522;-61
2022/03/09 05:44:02;;;;;;;6.80;4.22;;;;;;;-2.71;71.51;101610.25;1739780;82;26640;-61
2022/03/09 05:46:30;;;;;;;6.22;3.90;;;;;;;-2.62;71.27;101618.44;1740538;82;27336;-61
2022/03/09 05:48:57;;;;;;;8.98;4.90;;;;;;;-2.56;70.91;101623.14;1740447;82;25697;-61
2022/03/09 05:51:24;;;;;;;7.87;3.90;;;;;;;-2.47;70.37;101630.44;1728550;82;25757;-61
2022/03/09 05:53:51;;;;;;;4.67;2.85;;;;;;;-2.45;68.73;101637.84;1720999;82;25527;-61
2022/03/09 05:56:18;;;;;;;9.60;4.37;;;;;;;-2.49;68.53;101636.19;1723720;82;25746;-61
2022/03/09 05:58:45;;;;;;;6.17;3.35;;;;;;;-2.52;68.67;101633.17;1718103;82;27503;-61
2022/03/09 06:01:12;;;;;;;6.53;4.00;;;;;;;-2.48;67.93;101636.61;1732093;82;25692;-61
2022/03/09 06:03:39;;;;;;;7.22;3.60;;;;;;;-2.54;67.90;101638.45;1723135;83;25759;-61
2022/03/09 06:06:06;;;;;;;11.83;4.30;;;;;;;-2.62;67.91;101641.69;1726231;82;25735;-61
2022/03/09 06:08:32;;;;;;;6.42;4.33;;;;;;;-2.61;67.90;101646.06;1726143;83;25837;-61
2022/03/09 06:10:59;;;;;;;8.15;4.80;;;;;;;-2.58;68.43;101653.03;1726434;83;27467;-61
2022/03/09 06:13:26;;;;;;;8.98;4.50;;;;;;;-2.50;68.44;101651.11;1725889;82;25823;-62
2022/03/09 06:15:52;;;;;;;6.70;4.17;;;;;;;-2.38;68.34;101656.61;1726310;82;25727;-61
2022/03/09 06:18:19;;;;;;;8.60;4.40;;;;;;;-2.33;67.07;101664.42;1726042;83;25737;-61
2022/03/09 06:20:47;;;;;;;10.20;4.80;;;;;;;-2.32;67.24;101665.70;1726402;82;25784;-61
2022/03/09 06:23:15;;;;;;;7.92;3.87;;;;;;;-2.27;67.00;101667.77;1725883;82;27501;-61
2022/03/09 06:25:41;;;;;;;11.35;5.08;;;;;;;-2.27;66.15;101662.50;1726175;83;25534;-61
2022/03/09 06:28:08;;;;;;;7.58;4.50;;;;;;;-2.18;66.53;101670.69;1726114;82;25828;-61
2022/03/09 06:30:35;;;;;;;6.28;4.10;;;;;;;-2.25;66.26;101675.20;1726294;82;25603;-61
2022/03/09 06:33:02;;;;;;;12.23;4.53;;;;;;;-2.24;66.57;101674.31;1725933;82;25705;-61
2022/03/09 06:35:29;;;;;;;6.00;4.12;;;;;;;-2.20;66.83;101676.43;1726608;82;27464;-61
2022/03/09 06:37:56;;;;;;;5.90;3.42;;;;;;;-2.12;66.80;101677.13;1707716;82;25847;-61
2022/03/09 06:40:23;;;;;;;10.63;4.87;;;;;;;-2.03;67.07;101666.86;1723599;82;25873;-61
2022/03/09 06:42:51;;;;;;;8.73;4.12;;;;;;;-1.93;66.31;101674.95;1734918;82;25876;-61
2022/03/09 06:45:18;;;;;;;12.18;3.77;;;;;;;-1.93;66.45;101667.52;1728333;82;25800;-61
2022/03/09 06:47:46;;;;;;;6.78;4.25;;;;;;;-1.90;66.13;101678.86;1728771;82;28335;-61
2022/03/09 06:50:13;;;;;;;12.90;5.92;;;;;;;-1.87;65.77;101673.95;1726239;82;25857;-61
2022/03/09 06:52:40;;;;;;;5.25;3.65;;;;;;;-1.86;65.58;101684.08;1732082;82;25478;-60
2022/03/09 06:55:12;;;;;;;5.78;3.60;;;;;;;-1.84;65.34;101688.41;1719901;82;25856;-60
2022/03/09 06:57:39;;;;;;;4.92;3.65;;;;;;;-1.76;65.42;101692.20;1728616;82;26538;-60
2022/03/09 07:00:14;;;;;;;6.40;3.90;;;;;;;-1.75;65.01;101696.59;1728054;82;27503;-60
2022/03/09 07:02:42;;;;;;;8.55;3.60;;;;;;;-1.69;64.46;101693.80;1725281;82;25867;-61
2022/03/09 07:05:11;;;;;;;6.58;3.83;;;;;;;-1.76;64.67;101702.30;1732123;82;25803;-61
2022/03/09 07:07:40;;;;;;;10.10;3.40;;;;;;;-1.73;64.67;101707.95;1730425;82;25840;-61
2022/03/09 07:10:11;;;;;;;8.73;4.17;;;;;;;-1.73;64.68;101705.31;1740736;82;25851;-61
2022/03/09 07:12:39;;;;;;;4.20;2.83;;;;;;;-1.76;64.13;101714.16;1740217;82;27558;-61
2022/03/09 07:15:08;;;;;;;6.10;3.37;;;;;;;-1.79;64.09;101712.05;1740663;82;25772;-61
2022/03/09 07:17:35;;;;;;;12.88;3.58;;;;;;;-1.79;63.43;101718.18;1740732;82;25768;-61
2022/03/09 07:20:03;;;;;;;5.53;3.70;;;;;;;-1.84;63.88;101727.98;1740629;82;25823;-62
2022/03/09 07:22:30;;;;;;;6.28;3.58;;;;;;;-1.82;63.87;101718.70;1740544;82;25787;-61
2022/03/09 07:24:57;;;;;;;6.22;3.50;;;;;;;-1.80;64.08;101722.18;1740781;82;27431;-61
2022/03/09 07:27:24;;;;;;;10.68;4.60;;;;;;;-1.77;63.97;101722.98;1740926;82;25979;-61
2022/03/09 07:29:50;;;;;;;8.13;4.10;;;;;;;-1.71;63.92;101722.45;1740878;82;25720;-61
2022/03/09 07:32:17;;;;;;;14.58;4.20;;;;;;;-1.68;63.67;101711.37;1740628;82;25502;-61
2022/03/09 07:34:45;;;;;;;6.80;3.40;;;;;;;-1.64;62.94;101713.48;1740923;82;25686;-61
2022/03/09 07:37:11;;;;;;;5.10;3.67;;;;;;;-1.60;62.92;101713.81;1740721;82;28160;-61
2022/03/09 07:39:38;;;;;;;12.07;4.35;;;;;;;-1.50;63.30;101720.63;1740519;82;25817;-61
2022/03/09 07:42:06;;;;;;;7.70;4.05;;;;;;;-1.39;63.31;101716.41;1731989;81;25765;-61
2022/03/09 07:44:34;;;;;;;4.78;3.52;;;;;;;-1.30;62.91;101712.23;1730133;82;25830;-61
2022/03/09 07:47:01;;;;;;;10.48;4.47;;;;;;;-1.20;62.78;101706.30;1733662;82;25743;-61
2022/03/09 07:49:27;;;;;;;7.35;3.72;;;;;;;-1.17;61.54;101712.83;1736829;82;27488;-61
2022/03/09 07:51:54;;;;;;;5.60;3.17;;;;;;;-1.21;61.50;101713.80;1730249;82;26021;-61
2022/03/09 07:54:21;;;;;;;14.78;4.72;;;;;;;-1.17;61.58;101714.59;1731825;82;25716;-62
2022/03/09 07:56:49;;;;;;;5.97;3.75;;;;;;;-1.08;61.61;101718.33;1740633;82;25661;-62
2022/03/09 07:59:16;;;;;;;7.47;4.42;;;;;;;-0.94;61.38;101720.63;1740753;81;25732;-61
2022/03/09 08:01:44;;;;;;;17.12;4.28;;;;;;;-0.79;60.84;101724.19;1740781;82;28154;-61
2022/03/09 08:04:11;;;;;;;6.97;4.20;;;;;;;-0.71;60.69;101729.72;1735278;81;25854;-61
2022/03/09 08:06:40;;;;;;;4.85;3.30;;;;;;;-0.70;60.24;101727.05;1739195;82;25830;-61
2022/03/09 08:09:07;;;;;;;13.18;4.47;;;;;;;-0.67;60.38;101734.88;1740701;82;25747;-61
2022/03/09 08:11:34;;;;;;;11.03;4.08;;;;;;;-0.63;60.57;101727.77;1740887;81;25804;-61
2022/03/09 08:14:01;;;;;;;10.40;4.22;;;;;;;-0.59;60.38;101731.20;1740709;82;26950;-61
2022/03/09 08:16:28;;;;;;;11.05;4.28;;;;;;;-0.58;60.46;101732.47;1740684;82;27074;-61
2022/03/09 08:18:55;;;;;;;6.62;3.80;;;;;;;-0.64;60.01;101732.64;1740597;82;25774;-61
2022/03/09 08:21:22;;;;;;;9.33;5.00;;;;;;;-0.75;59.96;101730.72;1738288;82;25656;-62
2022/03/09 08:23:49;;;;;;;5.78;3.77;;;;;;;-0.83;60.29;101733.55;1731143;82;25802;-61
2022/03/09 08:26:16;;;;;;;10.00;4.87;;;;;;;-0.75;60.57;101736.86;1730940;82;28259;-61
2022/03/09 08:28:43;;;;;;;7.80;4.45;;;;;;;-0.63;60.52;101739.66;1731043;82;25783;-61
2022/03/09 08:31:10;;;;;;;7.80;4.83;;;;;;;-0.46;60.79;101743.62;1731107;82;25772;-61
2022/03/09 08:33:37;;;;;;;4.75;3.90;;;;;;;-0.37;60.41;101744.70;1731517;82;26171;-61
2022/03/09 08:36:06;;;;;;;11.25;4.15;;;;;;;-0.25;60.36;101735.56;1730915;81;26331;-61
2022/03/09 08:38:33;;;;;;;8.28;4.58;;;;;;;-0.10;60.18;101738.23;1731327;82;27434;-62
2022/03/09 08:41:00;;;;;;;6.15;3.90;;;;;;;0.09;60.54;101735.91;1730920;82;25712;-62
2022/03/09 08:43:27;;;;;;;7.00;4.20;;;;;;;0.31;60.38;101734.34;1719572;82;25795;-61
2022/03/09 08:45:54;;;;;;;7.25;4.00;;;;;;;0.45;59.19;101733.08;1739412;82;25795;-61
2022/03/09 08:48:21;;;;;;;6.78;4.17;;;;;;;0.74;59.51;101734.80;1740737;82;25838;-61
2022/03/09 08:50:48;;;;;;;10.00;4.95;;;;;;;0.99;58.72;101735.80;1740647;81;29628;-61
2022/03/09 08:53:16;;;;;;;7.08;3.90;;;;;;;1.13;58.47;101737.52;1740741;82;25799;-62
2022/03/09 08:55:42;;;;;;;11.10;4.97;;;;;;;1.11;57.49;101739.81;1702715;82;25754;-61
2022/03/09 08:58:09;;;;;;;8.50;4.33;;;;;;;1.19;57.94;101737.33;1701245;83;25944;-61
2022/03/09 09:00:36;;;;;;;7.03;4.00;;;;;;;1.34;56.64;101729.77;1701491;83;25653;-61
2022/03/09 09:03:04;;;;;;;6.53;3.72;;;;;;;1.32;57.27;101741.75;1700998;83;27525;-62
2022/03/09 09:05:31;;;;;;;6.87;3.80;;;;;;;1.31;57.05;101736.48;1700786;83;25816;-62
2022/03/09 09:07:59;;;;;;;6.08;4.12;;;;;;;1.42;57.46;101736.14;1702164;83;25815;-62
2022/03/09 09:10:26;;;;;;;7.22;4.80;;;;;;;1.63;56.71;101735.84;1701598;83;25800;-61
2022/03/09 09:12:54;;;;;;;8.58;4.47;;;;;;;1.79;56.49;101737.48;1717005;82;25794;-61
2022/03/09 09:15:22;;;;;;;7.33;4.05;;;;;;;2.21;56.53;101733.27;1740659;82;27549;-62
2022/03/09 09:18:01;;;;;;;8.25;4.62;;;;;;;2.48;55.35;101732.20;1740885;82;25719;-62
2022/03/09 09:20:29;;;;;;;6.83;4.62;;;;;;;2.78;54.97;101725.75;1740594;82;25843;-61
2022/03/09 09:22:57;;;;;;;13.80;5.45;;;;;;;3.09;54.64;101725.32;1739749;82;25557;-61
2022/03/09 09:25:26;;;;;;;8.35;4.65;;;;;;;3.22;53.94;101728.80;1740542;82;25655;-61
2022/03/09 09:27:56;;;;;;;8.18;4.65;;;;;;;3.46;53.02;101722.91;1736197;82;28224;-61
2022/03/09 09:30:26;;;;;;;7.92;4.53;;;;;;;3.31;52.56;101722.24;1732855;82;25762;-61
2022/03/09 09:32:54;;;;;;;6.97;4.47;;;;;;;3.60;52.33;101723.63;1733722;82;25835;-61
2022/03/09 09:35:21;;;;;;;7.03;3.75;;;;;;;3.60;51.19;101719.16;1733510;81;26121;-61
2022/03/09 09:37:48;;;;;;;6.40;3.98;;;;;;;4.10;50.10;101714.30;1735976;82;25756;-61
2022/03/09 09:40:15;;;;;;;4.40;3.30;;;;;;;5.15;47.09;101711.05;1740861;82;27382;-61
2022/03/09 09:42:42;;;;;;;8.40;3.85;;;;;;;5.85;46.49;101703.41;1737736;82;25819;-61
2022/03/09 09:45:10;;;;;;;7.40;3.90;;;;;;;6.56;48.01;101703.09;1709856;83;25788;-61
2022/03/09 09:47:38;;;;;;;9.53;4.35;;;;;;;6.39;47.58;101693.83;1709570;83;25507;-61
2022/03/09 09:50:07;;;;;;;7.08;3.85;;;;;;;6.24;43.77;101688.38;1709562;83;25935;-61
2022/03/09 09:52:36;;;;;;;6.20;3.20;;;;;;;6.83;45.11;101699.78;1709477;83;27465;-61
2022/03/09 09:55:07;;;;;;;4.70;3.17;;;;;;;7.47;44.67;101685.32;1724301;82;25732;-61
2022/03/09 09:57:35;;;;;;;5.05;3.50;;;;;;;8.22;42.92;101686.94;1730938;82;25723;-61
2022/03/09 10:00:05;;;;;;;5.40;3.08;;;;;;;9.08;42.99;101684.00;1731255;82;25717;-62
2022/03/09 10:02:37;;;;;;;4.55;2.62;;;;;;;9.73;38.77;101678.67;1693337;83;25828;-61
2022/03/09 10:05:05;;;;;;;5.20;2.50;;;;;;;9.43;39.08;101676.31;1712505;82;27470;-61
2022/03/09 10:07:32;;;;;;;3.52;2.80;;;;;;;8.45;39.04;101689.02;1740371;82;25795;-61
2022/03/09 10:09:59;;;;;;;5.30;2.72;;;;;;;7.47;39.07;101692.89;1740942;82;25723;-61
2022/03/09 10:12:28;;;;;;;5.90;3.30;;;;;;;6.72;39.48;101684.34;1740355;82;25659;-61
2022/03/09 10:14:56;;;;;;;6.80;3.05;;;;;;;6.28;41.62;101693.56;1740883;82;25723;-61
2022/03/09 10:17:26;;;;;;;4.47;2.40;;;;;;;6.24;40.71;101698.22;1740316;81;27461;-61
2022/03/09 10:20:09;;;;;;;4.35;2.30;;;;;;;6.46;40.38;101696.99;1740746;82;25796;-61
2022/03/09 10:22:44;;;;;;;5.75;2.90;;;;;;;7.07;40.67;101683.72;1740521;81;25779;-61
2022/03/09 10:25:16;;;;;;;3.98;2.70;;;;;;;6.88;39.33;101688.33;1740508;82;25981;-61
2022/03/09 10:27:49;;;;;;;4.03;2.87;;;;;;;6.30;40.92;101693.85;1740453;82;25827;-61
2022/03/09 10:30:19;;;;;;;6.00;2.08;;;;;;;5.61;40.75;101703.30;1740863;82;27559;-61
2022/03/09 10:32:54;;;;;;;6.50;4.05;;;;;;;5.20;41.15;101702.33;1740578;82;25827;-62
2022/03/09 10:35:35;;;;;;;5.15;2.83;;;;;;;4.84;41.11;101692.09;1726286;81;25809;-62
2022/03/09 10:38:07;;;;;;;3.55;2.35;;;;;;;4.94;42.14;101695.17;1703339;82;25859;-61
2022/03/09 10:40:50;;;;;;;3.80;1.98;;;;;;;6.66;40.67;101679.84;1700722;83;25755;-61
2022/03/09 10:43:24;;;;;;;4.75;1.92;;;;;;;7.68;38.10;101675.10;1715545;82;28179;-62
2022/03/09 10:46:09;;;;;;;4.08;2.05;;;;;;;8.95;36.44;101671.52;1740819;82;25738;-61
2022/03/09 10:49:00;;;;;;;3.87;1.98;;;;;;;9.97;34.88;101667.14;1740528;82;25806;-62
2022/03/09 10:51:36;;;;;;;8.03;3.15;;;;;;;10.64;35.20;101662.70;1737591;82;26237;-61
2022/03/09 10:54:23;;;;;;;3.70;2.22;;;;;;;9.87;33.45;101673.67;1739769;82;26568;-61
2022/03/09 10:56:53;;;;;;;6.15;1.55;;;;;;;9.13;34.53;101678.33;1740852;82;27500;-62
2022/03/09 10:59:26;;;;;;;7.45;1.98;;;;;;;8.05;34.66;101671.95;1739042;82;25746;-62
2022/03/09 11:02:07;;;;;;;5.72;1.95;;;;;;;7.18;34.13;101683.92;1740015;82;25714;-62
2022/03/09 11:04:36;;;;;;;4.25;2.08;;;;;;;6.34;34.95;101683.85;1740916;82;25806;-61
2022/03/09 11:07:04;;;;;;;2.90;1.80;;;;;;;5.61;35.47;101679.27;1740976;82;25770;-61
2022/03/09 11:09:31;;;;;;;2.02;1.55;;;;;;;5.16;37.24;101679.40;1740847;82;28208;-62
2022/03/09 11:11:59;;;;;;;2.47;1.80;;;;;;;5.38;37.21;101668.47;1740553;82;25818;-61
2022/03/09 11:14:27;;;;;;;3.12;2.10;;;;;;;5.32;37.97;101664.35;1740726;82;25502;-61
2022/03/09 11:17:00;;;;;;;3.62;2.00;;;;;;;5.20;37.56;101666.80;1740781;82;25778;-61
2022/03/09 11:19:27;;;;;;;2.90;1.55;;;;;;;5.04;38.06;101672.05;1740945;82;25852;-61
2022/03/09 11:21:55;;;;;;;1.85;1.50;;;;;;;4.65;37.76;101674.82;1735135;82;27484;-61
2022/03/09 11:24:23;;;;;;;5.40;1.82;;;;;;;4.20;38.07;101673.44;1739100;82;25799;-61
2022/03/09 11:26:55;;;;;;;3.10;1.70;;;;;;;3.95;38.46;101677.25;1739700;82;25732;-61
2022/03/09 11:29:35;;;;;;;3.00;1.55;;;;;;;3.78;38.86;101672.70;1740838;82;26459;-61
2022/03/09 11:32:06;;;;;;;12.15;5.90;;;;;;;3.62;38.96;101675.66;1740699;82;25795;-60
2022/03/09 11:34:48;;;;;;;2.72;2.08;;;;;;;3.55;40.05;101671.07;1740479;82;27329;-61